Time;durP1;ratioP1;P1;durP2;ratioP2;P2;SDS_P1;SDS_P2;PMS_P1;PMS_P2;Temp;Humidity;BMP_temperature;BMP_pressure;BME280_temperature;BME280_humidity;BME280_pressure;Samples;Min_cycle;Max_cycle;Signal;HPM_P1;HPM_P2
2024/02/09 00:01:24;;;;;;;39.80;27.10;;;;;;;3.28;100.00;98440.88;181164;1265;43095;-61
2024/02/09 00:05:37;;;;;;;46.30;32.00;;;;;;;3.28;100.00;98440.41;181124;1265;43764;-61
2024/02/09 00:09:40;;;;;;;49.60;33.70;;;;;;;3.30;100.00;98443.58;181039;1268;43847;-62
2024/02/09 00:13:55;;;;;;;48.30;29.70;;;;;;;3.28;100.00;98439.31;181057;1268;43461;-61
2024/02/09 00:17:59;;;;;;;54.80;30.50;;;;;;;3.30;100.00;98437.29;181146;1265;58220;-61
2024/02/09 00:22:03;;;;;;;44.50;29.70;;;;;;;3.34;100.00;98436.23;181130;1264;43658;-61
2024/02/09 00:26:07;;;;;;;52.00;32.70;;;;;;;3.36;100.00;98433.45;181128;1266;44086;-61
2024/02/09 00:30:16;;;;;;;53.50;34.90;;;;;;;3.39;100.00;98423.04;181121;1265;43792;-61
2024/02/09 00:39:52;;;;;;;56.40;32.40;;;;;;;3.39;100.00;98414.09;173253;1292;567640;-79
2024/02/09 00:43:56;;;;;;;56.60;30.10;;;;;;;3.33;100.00;98410.23;177725;1266;58005;-79
2024/02/09 00:48:03;;;;;;;49.60;31.20;;;;;;;3.33;100.00;98412.83;177975;1265;46254;-79
2024/02/09 00:52:08;;;;;;;58.20;37.00;;;;;;;3.33;100.00;98409.52;176356;1263;1168665;-78
2024/02/09 00:56:11;;;;;;;50.40;34.90;;;;;;;3.34;100.00;98406.13;177331;1265;46105;-79
2024/02/09 01:00:15;;;;;;;52.80;35.40;;;;;;;3.29;100.00;98392.83;178603;1263;46085;-78
2024/02/09 01:04:19;;;;;;;48.90;34.20;;;;;;;3.28;100.00;98382.89;177328;1263;58219;-78
2024/02/09 01:08:28;;;;;;;46.30;32.40;;;;;;;3.26;100.00;98380.30;176962;1267;46451;-78
2024/02/09 03:06:07;;;;;;;24.70;14.50;;;;;;;3.51;100.00;98276.73;181050;1253;43988;-79
2024/02/09 03:10:10;;;;;;;25.00;13.40;;;;;;;3.53;100.00;98267.16;178746;1254;46015;-79
2024/02/09 03:14:13;;;;;;;22.30;15.20;;;;;;;3.52;100.00;98264.73;179377;1253;58210;-78
2024/02/09 03:18:17;;;;;;;26.90;16.60;;;;;;;3.54;100.00;98268.45;179284;1254;46115;-79
2024/02/09 03:22:21;;;;;;;23.80;13.60;;;;;;;3.53;100.00;98275.23;180046;1254;44041;-79
2024/02/09 03:26:24;;;;;;;18.80;15.10;;;;;;;3.57;100.00;98270.16;179561;1254;44252;-79
2024/02/09 03:30:29;;;;;;;19.50;14.80;;;;;;;3.59;100.00;98269.48;180234;1254;45961;-81
2024/02/09 03:34:32;;;;;;;14.70;12.60;;;;;;;3.62;100.00;98270.73;177551;1254;57376;-80
2024/02/09 03:38:36;;;;;;;18.20;13.00;;;;;;;3.63;100.00;98268.92;178414;1253;46127;-80
2024/02/09 03:42:41;;;;;;;18.90;12.70;;;;;;;3.66;100.00;98266.20;179301;1254;44145;-80
2024/02/09 03:46:44;;;;;;;22.00;13.60;;;;;;;3.72;100.00;98270.47;178879;1253;46123;-80
2024/02/09 03:50:48;;;;;;;13.30;11.80;;;;;;;3.77;100.00;98272.15;178724;1254;46111;-81
2024/02/09 03:54:52;;;;;;;21.00;14.80;;;;;;;3.78;100.00;98277.66;177321;1256;57346;-80
2024/02/09 03:58:58;;;;;;;19.20;13.10;;;;;;;3.78;100.00;98272.88;177468;1253;46099;-80
2024/02/09 04:03:02;;;;;;;;;;;;;;;3.81;100.00;98272.79;180299;1253;46155;-81
2024/02/09 04:07:06;;;;;;;20.90;14.80;;;;;;;3.83;100.00;98269.52;178151;1253;45901;-82
2024/02/09 04:11:17;;;;;;;25.80;16.20;;;;;;;3.84;100.00;98261.52;177502;1256;46073;-81
2024/02/09 04:15:20;;;;;;;21.60;13.80;;;;;;;3.84;100.00;98262.16;177552;1252;60007;-82
2024/02/09 04:19:25;;;;;;;21.60;12.20;;;;;;;3.89;100.00;98265.33;178348;1253;45977;-81
2024/02/09 04:23:30;;;;;;;21.10;15.40;;;;;;;3.87;100.00;98255.31;179763;1256;46016;-82
2024/02/09 04:27:34;;;;;;;21.50;14.30;;;;;;;3.83;100.00;98247.88;179301;1252;46054;-82
2024/02/09 04:31:41;;;;;;;21.80;14.00;;;;;;;3.82;100.00;98241.34;179792;1253;46016;-81
2024/02/09 04:35:45;;;;;;;20.50;12.90;;;;;;;3.79;100.00;98239.30;177630;1254;58567;-82
2024/02/09 04:39:48;;;;;;;22.50;14.80;;;;;;;3.79;100.00;98244.46;178093;1256;46074;-82
2024/02/09 04:43:52;;;;;;;29.20;19.50;;;;;;;3.80;100.00;98243.77;178244;1253;46104;-82
2024/02/09 04:47:55;;;;;;;24.50;14.60;;;;;;;3.82;100.00;98237.98;178691;1254;46153;-82
2024/02/09 04:52:00;;;;;;;21.90;14.60;;;;;;;3.81;100.00;98229.92;178094;1256;46013;-82
2024/02/09 04:56:04;;;;;;;24.40;17.60;;;;;;;3.81;100.00;98219.17;177495;1253;59272;-82
2024/02/09 05:00:08;;;;;;;22.40;14.80;;;;;;;3.83;100.00;98214.43;178085;1252;46127;-82
2024/02/09 05:04:14;;;;;;;26.90;16.80;;;;;;;3.88;100.00;98209.44;177576;1253;46095;-82
2024/02/09 05:08:17;;;;;;;21.80;16.20;;;;;;;3.84;100.00;98203.70;177438;1253;46098;-81
2024/02/09 05:12:21;;;;;;;24.70;17.20;;;;;;;3.81;100.00;98201.14;178225;1253;45944;-80
2024/02/09 05:16:24;;;;;;;21.10;16.60;;;;;;;3.82;100.00;98212.02;178004;1253;56967;-80
2024/02/09 05:20:29;;;;;;;30.10;20.50;;;;;;;3.85;100.00;98221.05;176758;1252;46419;-80
2024/02/09 05:24:33;;;;;;;30.70;18.90;;;;;;;3.90;100.00;98216.89;177555;1254;46393;-79
2024/02/09 05:28:40;;;;;;;28.90;18.90;;;;;;;3.90;100.00;98208.23;176805;1254;46105;-80
2024/02/09 05:32:45;;;;;;;34.90;26.90;;;;;;;3.93;100.00;98204.45;177731;1253;45994;-82
2024/02/09 05:36:50;;;;;;;42.50;24.10;;;;;;;3.87;100.00;98203.74;177977;1254;60025;-82
2024/02/09 05:40:54;;;;;;;38.90;26.80;;;;;;;3.85;100.00;98205.20;177237;1254;46146;-82
2024/02/09 05:44:57;;;;;;;46.20;29.90;;;;;;;3.84;100.00;98198.20;177564;1254;46070;-82
2024/02/09 05:49:00;;;;;;;33.80;22.80;;;;;;;3.87;100.00;98189.59;177222;1254;46101;-82
2024/02/09 05:53:04;;;;;;;25.50;19.20;;;;;;;3.87;100.00;98186.54;177932;1254;46117;-80
2024/02/09 05:57:07;;;;;;;42.50;23.80;;;;;;;3.88;100.00;98187.92;178563;1254;59800;-80
2024/02/09 06:01:11;;;;;;;37.90;22.20;;;;;;;3.89;100.00;98183.41;177418;1254;46088;-79
2024/02/09 06:05:15;;;;;;;32.70;21.20;;;;;;;3.91;100.00;98178.88;178079;1253;46489;-82
2024/02/09 06:09:18;;;;;;;35.10;18.90;;;;;;;3.95;100.00;98175.73;178113;1254;46098;-82
2024/02/09 06:13:21;;;;;;;33.10;22.60;;;;;;;3.94;100.00;98176.32;178369;1254;46111;-81
2024/02/09 06:17:28;;;;;;;43.70;28.10;;;;;;;3.93;100.00;98172.23;178051;1256;59917;-81
2024/02/09 06:21:32;;;;;;;33.50;23.20;;;;;;;3.97;100.00;98170.13;177439;1254;45923;-82
2024/02/09 06:25:36;;;;;;;32.20;20.10;;;;;;;4.01;100.00;98172.36;177445;1256;46089;-82
2024/02/09 06:29:39;;;;;;;32.60;21.00;;;;;;;3.99;100.00;98182.39;178070;1256;46738;-81
2024/02/09 06:33:46;;;;;;;39.70;23.40;;;;;;;3.98;100.00;98183.36;177577;1254;44557;-82
2024/02/09 06:37:50;;;;;;;34.50;22.10;;;;;;;3.97;100.00;98180.39;178017;1253;58181;-82
2024/02/09 06:41:54;;;;;;;32.10;24.60;;;;;;;4.00;100.00;98169.32;179525;1254;46192;-82
2024/02/09 06:45:58;;;;;;;36.70;23.20;;;;;;;4.05;100.00;98165.20;177412;1254;46081;-82
2024/02/09 06:50:06;;;;;;;41.20;24.50;;;;;;;4.06;100.00;98165.78;177679;1256;45996;-79
2024/02/09 06:54:09;;;;;;;38.90;28.00;;;;;;;4.09;100.00;98163.98;178389;1256;46125;-80
2024/02/09 06:58:13;;;;;;;55.30;30.30;;;;;;;4.13;100.00;98163.99;177504;1254;59561;-82
2024/02/09 07:02:18;;;;;;;37.80;26.60;;;;;;;4.12;100.00;98168.08;178284;1254;44441;-81
2024/02/09 07:06:22;;;;;;;50.00;28.80;;;;;;;4.15;100.00;98167.30;177714;1256;46403;-82
2024/02/09 07:10:26;;;;;;;43.70;25.70;;;;;;;4.18;100.00;98164.27;177489;1254;46050;-82
2024/02/09 07:14:30;;;;;;;45.80;27.00;;;;;;;4.21;100.00;98162.73;177763;1253;46019;-82
2024/02/09 07:18:38;;;;;;;39.60;25.90;;;;;;;4.25;100.00;98157.95;176996;1254;57881;-82
2024/02/09 07:22:42;;;;;;;50.80;27.00;;;;;;;4.29;100.00;98153.63;177330;1254;46008;-83
2024/02/09 07:26:45;;;;;;;37.50;21.80;;;;;;;4.28;100.00;98149.48;177950;1254;46099;-82
2024/02/09 07:30:48;;;;;;;38.80;27.30;;;;;;;4.26;100.00;98148.45;176938;1256;46104;-84
2024/02/09 07:34:52;;;;;;;52.20;32.50;;;;;;;4.29;100.00;98150.23;177359;1256;46102;-82
2024/02/09 07:38:57;;;;;;;45.70;28.00;;;;;;;4.33;100.00;98147.98;178026;1255;58395;-81
2024/02/09 07:43:01;;;;;;;48.00;32.10;;;;;;;4.40;100.00;98146.98;177764;1255;46226;-81
2024/02/09 07:47:04;;;;;;;48.20;29.10;;;;;;;4.45;100.00;98134.27;177598;1254;46124;-82
2024/02/09 07:51:08;;;;;;;43.10;27.30;;;;;;;4.49;100.00;98130.07;177630;1254;46114;-82
2024/02/09 07:55:13;;;;;;;51.50;32.40;;;;;;;4.47;100.00;98126.70;177298;1256;46105;-82
2024/02/09 07:59:18;;;;;;;50.30;33.70;;;;;;;4.54;100.00;98119.42;178396;1254;59196;-81
2024/02/09 08:03:21;;;;;;;39.60;26.40;;;;;;;4.63;100.00;98114.42;178115;1252;46088;-81
2024/02/09 08:07:25;;;;;;;39.50;28.30;;;;;;;4.69;100.00;98102.23;177702;1253;46086;-82
2024/02/09 08:11:28;;;;;;;43.40;27.80;;;;;;;4.73;100.00;98099.61;177433;1256;46088;-81
2024/02/09 08:15:32;;;;;;;40.10;23.50;;;;;;;4.79;100.00;98097.10;178668;1254;43985;-81
2024/02/09 08:19:36;;;;;;;53.60;31.70;;;;;;;4.84;100.00;98090.70;177631;1254;58258;-81
2024/02/09 08:23:40;;;;;;;54.40;32.30;;;;;;;4.85;100.00;98092.04;178534;1254;46076;-82
2024/02/09 08:27:43;;;;;;;55.90;31.90;;;;;;;4.88;100.00;98089.58;178774;1254;46028;-81
2024/02/09 08:31:46;;;;;;;63.10;33.90;;;;;;;4.96;100.00;98082.40;178023;1256;46018;-81
2024/02/09 08:35:49;;;;;;;67.20;38.40;;;;;;;5.05;100.00;98075.10;177834;1253;46361;-81
2024/02/09 08:39:53;;;;;;;46.90;33.10;;;;;;;5.08;100.00;98067.92;178566;1255;59611;-81
2024/02/09 08:43:57;;;;;;;52.50;35.60;;;;;;;5.09;100.00;98074.01;178224;1255;45982;-81
2024/02/09 08:48:01;;;;;;;50.40;32.40;;;;;;;5.12;100.00;98072.64;177937;1254;46098;-81
2024/02/09 08:52:05;;;;;;;55.30;31.40;;;;;;;5.16;100.00;98072.80;177666;1256;47439;-81
2024/02/09 08:56:12;;;;;;;62.50;36.80;;;;;;;5.21;100.00;98069.28;177883;1260;45994;-81
2024/02/09 09:00:15;;;;;;;42.20;32.80;;;;;;;5.28;100.00;98070.65;177677;1254;58238;-81
2024/02/09 09:04:19;;;;;;;52.90;34.10;;;;;;;5.38;100.00;98065.29;177279;1255;46023;-81
2024/02/09 09:08:22;;;;;;;55.90;36.90;;;;;;;5.47;100.00;98057.91;177843;1254;46088;-81
2024/02/09 09:12:26;;;;;;;48.40;32.90;;;;;;;5.53;100.00;98050.66;177949;1253;46088;-82
2024/02/09 09:16:29;;;;;;;57.80;35.30;;;;;;;5.51;100.00;98047.31;178449;1252;46009;-82
2024/02/09 09:20:34;;;;;;;59.30;35.90;;;;;;;5.58;100.00;98046.83;178429;1257;58461;-81
2024/02/09 09:24:38;;;;;;;64.10;37.80;;;;;;;5.66;100.00;98043.11;178695;1256;46092;-81
2024/02/09 09:28:42;;;;;;;54.00;35.40;;;;;;;5.71;100.00;98048.27;177679;1256;45970;-81
2024/02/09 09:32:45;;;;;;;57.00;33.60;;;;;;;5.81;100.00;98045.14;177950;1256;46149;-81
2024/02/09 09:36:49;;;;;;;64.30;36.80;;;;;;;5.88;100.00;98046.77;177439;1257;44198;-81
2024/02/09 09:40:54;;;;;;;53.70;36.00;;;;;;;6.00;100.00;98048.39;178273;1253;60048;-81
2024/02/09 09:44:58;;;;;;;53.60;36.90;;;;;;;6.07;100.00;98050.21;177779;1253;46142;-81
2024/02/09 09:49:03;;;;;;;53.60;35.30;;;;;;;6.16;100.00;98043.59;178102;1254;46102;-82
2024/02/09 09:53:13;;;;;;;62.20;35.00;;;;;;;6.25;100.00;98045.50;177284;1254;45858;-81
2024/02/09 09:57:17;;;;;;;62.10;39.80;;;;;;;6.34;100.00;98039.69;177361;1254;46015;-81
2024/02/09 10:01:20;;;;;;;67.80;39.30;;;;;;;6.45;100.00;98033.49;177639;1255;58228;-82
2024/02/09 10:05:30;;;;;;;59.30;38.40;;;;;;;6.55;100.00;98035.78;177816;1254;46166;-81
2024/02/09 10:09:34;;;;;;;55.30;36.10;;;;;;;6.66;100.00;98032.58;178132;1253;46107;-81
2024/02/09 10:13:40;;;;;;;55.00;38.60;;;;;;;6.73;100.00;98026.94;176651;1256;46115;-81
2024/02/09 10:17:44;;;;;;;42.90;31.40;;;;;;;6.82;100.00;98017.40;178851;1254;45898;-80
2024/02/09 10:21:47;;;;;;;62.70;41.20;;;;;;;6.89;100.00;98018.05;177557;1254;59590;-81
2024/02/09 10:25:55;;;;;;;54.00;34.40;;;;;;;7.05;100.00;98015.63;178324;1254;45980;-82
2024/02/09 10:29:59;;;;;;;59.40;30.70;;;;;;;7.12;100.00;98007.98;177816;1254;46108;-82
2024/02/09 10:34:03;;;;;;;62.00;38.60;;;;;;;7.22;100.00;98006.23;178014;1256;46543;-81
2024/02/09 10:38:07;;;;;;;55.50;36.00;;;;;;;7.37;100.00;98001.08;178117;1254;45455;-83
2024/02/09 10:42:14;;;;;;;54.30;35.40;;;;;;;7.49;100.00;98001.17;178669;1254;60096;-82
2024/02/09 10:46:22;;;;;;;61.30;39.90;;;;;;;7.62;100.00;97999.61;178065;1254;45992;-83
2024/02/09 10:50:30;;;;;;;55.90;35.20;;;;;;;7.74;100.00;97995.59;178070;1254;46046;-82
2024/02/09 10:54:45;;;;;;;58.70;37.00;;;;;;;7.76;100.00;97985.30;177799;1254;46650;-82
2024/02/09 10:58:48;;;;;;;73.40;38.00;;;;;;;7.83;100.00;97977.80;177947;1254;46146;-83
2024/02/09 11:02:52;;;;;;;59.30;37.00;;;;;;;7.94;100.00;97970.45;177928;1255;58842;-83
2024/02/09 11:06:59;;;;;;;55.80;33.50;;;;;;;8.07;100.00;97967.33;178312;1254;46283;-82
2024/02/09 11:11:04;;;;;;;45.00;31.30;;;;;;;8.24;100.00;97969.63;178284;1260;46131;-82
2024/02/09 11:15:15;;;;;;;51.40;34.00;;;;;;;8.36;100.00;97972.36;178496;1254;45996;-81
2024/02/09 11:19:19;;;;;;;50.00;31.80;;;;;;;8.57;100.00;97974.83;177992;1254;46014;-81
2024/02/09 11:23:28;;;;;;;47.60;30.40;;;;;;;8.68;100.00;97972.34;178692;1254;58218;-81
2024/02/09 11:27:32;;;;;;;58.40;36.00;;;;;;;8.71;100.00;97972.81;177517;1260;46053;-81
2024/02/09 11:31:37;;;;;;;48.10;32.00;;;;;;;8.83;100.00;97970.98;176504;1255;45719;-81
2024/02/09 11:35:46;;;;;;;60.50;32.80;;;;;;;8.79;100.00;97961.50;177369;1257;44176;-81
2024/02/09 11:39:50;;;;;;;57.80;36.40;;;;;;;8.79;100.00;97951.63;177759;1254;46021;-81
2024/02/09 11:43:55;;;;;;;45.00;32.00;;;;;;;8.93;100.00;97946.50;178163;1254;58041;-82
2024/02/09 11:48:00;;;;;;;51.80;31.80;;;;;;;9.02;100.00;97943.14;178251;1256;45989;-82
2024/02/09 11:52:08;;;;;;;111.70;63.20;;;;;;;9.07;100.00;97932.45;177584;1253;46093;-82
2024/02/09 11:56:12;;;;;;;56.00;37.60;;;;;;;9.19;100.00;97927.17;177494;1257;46179;-82
2024/02/09 12:00:16;;;;;;;51.00;33.80;;;;;;;9.24;100.00;97924.23;177677;1254;46057;-82
2024/02/09 12:04:21;;;;;;;62.80;38.10;;;;;;;9.20;100.00;97925.84;177931;1254;59523;-82
2024/02/09 12:08:24;;;;;;;73.80;39.20;;;;;;;9.11;100.00;97925.20;178037;1253;46029;-82
2024/02/09 12:12:28;;;;;;;67.90;38.40;;;;;;;9.02;100.00;97926.97;177501;1254;46187;-82
2024/02/09 12:16:31;;;;;;;70.10;41.70;;;;;;;9.01;100.00;97922.83;177873;1254;46075;-82
2024/02/09 12:20:35;;;;;;;50.60;35.80;;;;;;;9.10;100.00;97919.52;177243;1256;46102;-82
2024/02/09 12:24:43;;;;;;;53.00;38.10;;;;;;;9.27;100.00;97914.79;177929;1253;57849;-82
2024/02/09 12:28:47;;;;;;;74.50;44.90;;;;;;;9.43;100.00;97919.17;178305;1254;45996;-82
2024/02/09 12:32:51;;;;;;;48.00;31.60;;;;;;;9.56;100.00;97913.69;177966;1253;46076;-82
2024/02/09 12:36:59;;;;;;;46.00;30.70;;;;;;;9.70;100.00;97913.76;177828;1253;46212;-82
2024/02/09 12:41:02;;;;;;;40.60;28.50;;;;;;;9.81;100.00;97910.20;177019;1254;45981;-81
2024/02/09 12:45:06;;;;;;;57.90;38.80;;;;;;;9.86;100.00;97905.92;178457;1253;57782;-81
2024/02/09 12:49:11;;;;;;;45.20;30.20;;;;;;;9.98;100.00;97905.24;178228;1254;46054;-82
2024/02/09 12:53:17;;;;;;;42.80;31.50;;;;;;;10.05;100.00;97908.63;176980;1253;213851;-81
2024/02/09 12:57:22;;;;;;;45.80;32.50;;;;;;;10.12;100.00;97909.52;177689;1252;46220;-82
2024/02/09 13:01:25;;;;;;;42.90;28.20;;;;;;;10.15;100.00;97908.13;177456;1254;46012;-81
2024/02/09 13:05:30;;;;;;;44.10;28.60;;;;;;;10.19;100.00;97903.80;177393;1253;57526;-82
2024/02/09 13:09:35;;;;;;;45.80;30.10;;;;;;;10.23;100.00;97901.01;176703;1254;46089;-82
2024/02/09 13:13:39;;;;;;;50.50;31.60;;;;;;;10.23;100.00;97897.99;178903;1254;46287;-82
2024/02/09 13:17:43;;;;;;;51.10;32.00;;;;;;;10.20;100.00;97899.24;178780;1254;46022;-82
2024/02/09 13:21:51;;;;;;;50.60;30.70;;;;;;;10.18;100.00;97896.48;177900;1254;46057;-83
2024/02/09 13:25:59;;;;;;;69.90;46.70;;;;;;;10.23;100.00;97896.77;178990;1256;59259;-82
2024/02/09 13:30:04;;;;;;;54.60;36.30;;;;;;;10.28;100.00;97895.72;178528;1254;45993;-81
2024/02/09 13:34:07;;;;;;;48.10;32.30;;;;;;;10.27;100.00;97885.16;177957;1253;46095;-81
2024/02/09 13:38:11;;;;;;;62.30;35.50;;;;;;;10.32;100.00;97881.38;177931;1254;46015;-82
2024/02/09 13:42:15;;;;;;;45.20;28.90;;;;;;;10.39;100.00;97878.73;177000;1253;46117;-81
2024/02/09 13:46:18;;;;;;;50.90;32.70;;;;;;;10.44;100.00;97875.77;177347;1254;57931;-81
2024/02/09 13:50:25;;;;;;;58.50;35.20;;;;;;;10.40;100.00;97876.36;177303;1254;46022;-82
2024/02/09 13:54:31;;;;;;;62.40;40.20;;;;;;;10.35;100.00;97874.27;177597;1254;46098;-81
2024/02/09 13:58:35;;;;;;;67.50;42.60;;;;;;;10.25;100.00;97873.13;177540;1256;46094;-82
2024/02/09 14:02:39;;;;;;;66.10;41.50;;;;;;;10.24;100.00;97871.76;177612;1253;46076;-82
2024/02/09 14:06:43;;;;;;;66.10;39.40;;;;;;;10.23;100.00;97872.59;177743;1254;60144;-82
2024/02/09 14:10:47;;;;;;;63.40;37.70;;;;;;;10.27;100.00;97879.35;177851;1254;46531;-82
2024/02/09 14:14:50;;;;;;;59.00;38.70;;;;;;;10.33;100.00;97886.63;177793;1253;46217;-81
2024/02/09 14:18:54;;;;;;;58.80;38.00;;;;;;;10.36;100.00;97879.31;179421;1252;46120;-83
2024/02/09 14:22:59;;;;;;;59.30;33.80;;;;;;;10.37;100.00;97880.40;178231;1256;46120;-81
2024/02/09 14:27:06;;;;;;;63.30;35.70;;;;;;;10.41;100.00;97878.21;179623;1253;58013;-80
2024/02/09 14:31:10;;;;;;;56.50;36.60;;;;;;;10.41;100.00;97886.55;179165;1253;46102;-80
2024/02/09 14:35:14;;;;;;;53.70;37.00;;;;;;;10.40;100.00;97883.40;179036;1253;46092;-80
2024/02/09 14:39:17;;;;;;;62.00;37.10;;;;;;;10.44;100.00;97877.40;178715;1254;44236;-81
2024/02/09 14:43:21;;;;;;;58.10;35.30;;;;;;;10.49;100.00;97879.60;179709;1254;46085;-80
2024/02/09 14:47:25;;;;;;;52.60;30.10;;;;;;;10.51;100.00;97879.74;179141;1254;59323;-80
2024/02/09 14:51:29;;;;;;;55.00;36.30;;;;;;;10.56;100.00;97882.67;180074;1253;46072;-80
2024/02/09 14:55:32;;;;;;;98.70;76.10;;;;;;;10.63;100.00;97881.99;179163;1253;44410;-81
2024/02/09 14:59:35;;;;;;;75.20;55.90;;;;;;;10.72;100.00;97879.48;178210;1256;46214;-81
2024/02/09 15:03:38;;;;;;;76.10;60.20;;;;;;;10.80;100.00;97884.57;179901;1253;46181;-82
2024/02/09 15:07:42;;;;;;;55.40;40.80;;;;;;;10.87;100.00;97887.80;178950;1253;57901;-81
2024/02/09 15:11:45;;;;;;;67.90;49.70;;;;;;;10.93;100.00;97884.27;178116;1254;46168;-81
2024/02/09 15:15:49;;;;;;;40.50;27.90;;;;;;;11.03;100.00;97885.89;178840;1254;46093;-81
2024/02/09 15:19:52;;;;;;;41.80;29.80;;;;;;;11.07;100.00;97887.23;179183;1256;46098;-81
2024/02/09 15:23:56;;;;;;;47.20;34.00;;;;;;;11.05;100.00;97884.45;180162;1253;45944;-81
2024/02/09 15:28:00;;;;;;;46.30;36.30;;;;;;;11.07;100.00;97886.95;179184;1253;59600;-81
2024/02/09 15:32:03;;;;;;;45.80;33.80;;;;;;;11.02;100.00;97887.47;180931;1253;44222;-81
2024/02/09 15:36:07;;;;;;;89.70;57.50;;;;;;;10.97;100.00;97890.64;179880;1252;46009;-81
2024/02/09 15:40:11;;;;;;;114.90;73.10;;;;;;;10.93;100.00;97888.97;177885;1253;46038;-81
2024/02/09 15:44:14;;;;;;;92.40;60.70;;;;;;;10.93;100.00;97886.52;179826;1253;46121;-81
2024/02/09 15:48:17;;;;;;;84.10;55.60;;;;;;;10.95;100.00;97892.84;179697;1254;59496;-81
2024/02/09 15:52:20;;;;;;;80.00;54.40;;;;;;;11.00;100.00;97899.03;179380;1253;46044;-82
2024/02/09 15:56:35;;;;;;;86.90;56.90;;;;;;;11.03;100.00;97899.64;180455;1253;44757;-80
2024/02/09 16:00:39;;;;;;;66.80;48.60;;;;;;;11.05;100.00;97902.81;179476;1253;46075;-79
2024/02/09 16:04:42;;;;;;;64.90;43.70;;;;;;;11.07;100.00;97902.14;179955;1252;46067;-82
2024/02/09 16:08:49;;;;;;;43.00;27.60;;;;;;;11.12;100.00;97905.91;179804;1252;57767;-81
2024/02/09 16:12:54;;;;;;;28.70;19.00;;;;;;;11.19;100.00;97904.19;179003;1254;46216;-81
2024/02/09 16:16:57;;;;;;;32.50;17.50;;;;;;;11.23;100.00;97904.38;179342;1253;46239;-82
2024/02/09 16:21:01;;;;;;;24.40;18.90;;;;;;;11.29;100.00;97913.75;179143;1253;45887;-81
2024/02/09 16:25:05;;;;;;;35.90;24.50;;;;;;;11.37;100.00;97908.21;179212;1253;46002;-81
2024/02/09 16:29:08;;;;;;;34.50;22.20;;;;;;;11.46;100.00;97899.05;179693;1252;58201;-82
2024/02/09 16:33:12;;;;;;;32.40;20.10;;;;;;;11.49;100.00;97897.98;181798;1252;43922;-81
2024/02/09 16:37:15;;;;;;;31.90;18.50;;;;;;;11.47;100.00;97899.72;181760;1253;44399;-82
2024/02/09 16:41:20;;;;;;;23.30;16.30;;;;;;;11.50;100.00;97890.98;181709;1253;44139;-81
2024/02/09 16:45:23;;;;;;;23.40;15.20;;;;;;;11.51;100.00;97883.80;179403;1253;44394;-82
2024/02/09 16:49:27;;;;;;;31.70;19.60;;;;;;;11.50;100.00;97878.60;180159;1253;58028;-81
2024/02/09 16:53:32;;;;;;;26.90;15.10;;;;;;;11.47;100.00;97885.33;180703;1252;46105;-80
2024/02/09 16:57:38;;;;;;;27.20;13.70;;;;;;;11.45;100.00;97886.64;178554;1253;44154;-81
2024/02/09 17:01:42;;;;;;;19.90;11.80;;;;;;;11.42;100.00;97881.63;178910;1252;46120;-80
2024/02/09 17:05:45;;;;;;;27.80;12.00;;;;;;;11.38;100.00;97884.27;179182;1253;46015;-80
2024/02/09 17:09:48;;;;;;;19.90;12.30;;;;;;;11.32;100.00;97889.83;180092;1253;59538;-80
2024/02/09 17:13:52;;;;;;;20.20;12.90;;;;;;;11.30;100.00;97891.46;179975;1253;45192;-81
2024/02/09 17:17:55;;;;;;;17.20;13.50;;;;;;;11.28;100.00;97900.35;178872;1253;46074;-81
2024/02/09 17:21:59;;;;;;;23.60;11.50;;;;;;;11.26;100.00;97908.85;179149;1254;46373;-81
2024/02/09 17:26:02;;;;;;;20.30;11.80;;;;;;;11.21;100.00;97909.91;179499;1253;45877;-81
2024/02/09 17:30:07;;;;;;;14.00;10.90;;;;;;;11.17;100.00;97911.98;179875;1255;58186;-81
2024/02/09 17:34:11;;;;;;;22.10;11.20;;;;;;;11.14;100.00;97914.73;179354;1253;45964;-80
2024/02/09 17:38:14;;;;;;;20.80;11.20;;;;;;;11.08;100.00;97916.10;178524;1252;46114;-80
2024/02/09 17:42:18;;;;;;;19.60;11.00;;;;;;;11.05;100.00;97917.42;178678;1253;46105;-80
2024/02/09 17:46:21;;;;;;;17.10;10.80;;;;;;;10.99;100.00;97917.92;179054;1252;44175;-81
2024/02/09 17:50:26;;;;;;;18.90;10.30;;;;;;;10.98;100.00;97922.25;180158;1253;59573;-81
2024/02/09 17:54:30;;;;;;;17.40;10.20;;;;;;;10.94;100.00;97916.41;179409;1253;46083;-81
2024/02/09 17:58:35;;;;;;;28.70;13.60;;;;;;;10.91;100.00;97915.67;179161;1253;46306;-81
2024/02/09 18:02:39;;;;;;;20.10;13.40;;;;;;;10.87;100.00;97911.41;178259;1253;46047;-80
2024/02/09 18:06:42;;;;;;;22.80;13.10;;;;;;;10.85;100.00;97900.95;178953;1252;45963;-80
2024/02/09 18:10:45;;;;;;;21.30;14.50;;;;;;;10.76;100.00;97893.23;180108;1253;59295;-81
2024/02/09 18:14:49;;;;;;;19.70;13.10;;;;;;;10.74;100.00;97894.55;179385;1253;44829;-81
2024/02/09 18:18:53;;;;;;;19.60;10.30;;;;;;;10.72;100.00;97897.64;179961;1253;45976;-81
2024/02/09 18:22:58;;;;;;;18.90;11.00;;;;;;;10.72;100.00;97899.53;178482;1253;46162;-81
2024/02/09 18:27:01;;;;;;;12.20;7.90;;;;;;;10.74;100.00;97896.80;178905;1253;46015;-80
2024/02/09 18:31:05;;;;;;;17.60;10.20;;;;;;;10.76;100.00;97895.48;180147;1253;59580;-80
2024/02/09 18:35:12;;;;;;;22.50;11.30;;;;;;;10.78;100.00;97896.75;180349;1254;46101;-80
2024/02/09 18:39:16;;;;;;;22.70;11.80;;;;;;;10.76;100.00;97899.61;180514;1252;46108;-80
2024/02/09 18:43:19;;;;;;;19.90;13.30;;;;;;;10.75;100.00;97894.87;178851;1253;45973;-81
2024/02/09 18:47:22;;;;;;;17.40;11.80;;;;;;;10.77;100.00;97889.39;180023;1253;45984;-81
2024/02/09 18:51:25;;;;;;;20.90;12.40;;;;;;;10.78;100.00;97887.98;178350;1256;58307;-81
2024/02/09 18:55:29;;;;;;;19.10;10.20;;;;;;;10.77;100.00;97886.57;179519;1253;45989;-81
2024/02/09 18:59:32;;;;;;;30.60;12.70;;;;;;;10.77;100.00;97883.37;178297;1253;45958;-80
2024/02/09 19:03:35;;;;;;;24.80;14.30;;;;;;;10.75;100.00;97886.39;179608;1253;44964;-81
2024/02/09 19:07:40;;;;;;;20.20;14.10;;;;;;;10.76;100.00;97883.53;179431;1252;45993;-81
2024/02/09 19:11:43;;;;;;;21.70;13.50;;;;;;;10.76;100.00;97884.75;179794;1253;57653;-81
2024/02/09 19:15:47;;;;;;;20.00;12.40;;;;;;;10.72;100.00;97891.52;180171;1253;46104;-81
2024/02/09 19:19:53;;;;;;;17.00;12.60;;;;;;;10.68;100.00;97894.71;179066;1254;44392;-81
2024/02/09 19:23:59;;;;;;;23.50;12.20;;;;;;;10.64;100.00;97900.42;180390;1253;46310;-81
2024/02/09 19:28:03;;;;;;;;;;;;;;;10.61;100.00;97900.19;179671;1254;45956;-81
2024/02/09 19:32:06;;;;;;;18.80;14.40;;;;;;;10.56;100.00;97903.52;180127;1252;57998;-81
2024/02/09 19:36:12;;;;;;;23.00;13.10;;;;;;;10.50;100.00;97903.98;178790;1253;46073;-78
2024/02/09 19:40:15;;;;;;;19.90;13.10;;;;;;;10.49;100.00;97907.77;179609;1253;46067;-81
2024/02/09 19:44:20;;;;;;;20.60;11.80;;;;;;;10.50;100.00;97905.37;179626;1254;46106;-81
2024/02/09 19:48:25;;;;;;;23.90;15.80;;;;;;;10.48;100.00;97905.05;179218;1253;46169;-81
2024/02/09 19:52:29;;;;;;;19.80;13.50;;;;;;;10.42;100.00;97903.43;177837;1255;58197;-80
2024/02/09 19:56:32;;;;;;;23.70;15.50;;;;;;;10.41;100.00;97906.91;178988;1253;46121;-80
2024/02/09 20:00:37;;;;;;;26.90;17.60;;;;;;;10.43;100.00;97904.59;179266;1253;46628;-80
2024/02/09 20:04:41;;;;;;;22.10;15.60;;;;;;;10.45;100.00;97905.36;178991;1253;44320;-80
2024/02/09 20:08:45;;;;;;;25.90;16.00;;;;;;;10.46;100.00;97905.98;178501;1254;47245;-80
2024/02/09 20:12:50;;;;;;;21.50;12.40;;;;;;;10.47;100.00;97903.74;179156;1253;58249;-80
2024/02/09 20:16:54;;;;;;;24.20;14.50;;;;;;;10.47;100.00;97907.66;178964;1253;46083;-80
2024/02/09 20:20:57;;;;;;;22.40;14.20;;;;;;;10.43;100.00;97917.68;180596;1252;44315;-81
2024/02/09 20:25:01;;;;;;;24.00;15.20;;;;;;;10.40;100.00;97920.80;181038;1253;44067;-80